Time;durP1;ratioP1;P1;durP2;ratioP2;P2;SDS_P1;SDS_P2;PMS_P1;PMS_P2;Temp;Humidity;BMP_temperature;BMP_pressure;BME280_temperature;BME280_humidity;BME280_pressure;Samples;Min_cycle;Max_cycle;Signal;HPM_P1;HPM_P2
2022/05/02 00:00:32;;;;;;;8.13;7.50;;;10.80;99.90;;;;;;5041582;28;20329;-50
2022/05/02 00:02:58;;;;;;;8.43;7.73;;;10.70;99.90;;;;;;5024343;28;21034;-49
2022/05/02 00:05:24;;;;;;;8.17;7.50;;;10.70;99.90;;;;;;5028606;28;20213;-48
2022/05/02 00:07:49;;;;;;;7.70;7.20;;;10.60;99.90;;;;;;5024782;28;20446;-53
2022/05/02 00:10:16;;;;;;;9.17;8.50;;;10.60;99.90;;;;;;5022319;28;20205;-54
2022/05/02 00:12:42;;;;;;;8.90;7.87;;;10.50;99.90;;;;;;5026106;28;20564;-52
2022/05/02 00:15:08;;;;;;;8.27;7.57;;;10.40;99.90;;;;;;5028007;28;20491;-52
2022/05/02 00:20:18;;;;;;;8.03;7.43;;;10.30;99.90;;;;;;5026810;28;20444;-51
2022/05/02 00:22:45;;;;;;;7.90;7.37;;;10.20;99.90;;;;;;5025566;28;20468;-48
2022/05/02 00:25:12;;;;;;;7.50;7.00;;;10.20;99.90;;;;;;5025697;28;20191;-52
2022/05/02 00:27:39;;;;;;;9.27;7.63;;;10.10;99.90;;;;;;5029375;28;20480;-49
2022/05/02 00:30:07;;;;;;;8.30;7.60;;;10.10;99.90;;;;;;5029948;28;20568;-53
2022/05/02 00:32:32;;;;;;;8.83;8.10;;;10.00;99.90;;;;;;5030748;28;20441;-53
2022/05/02 00:34:58;;;;;;;8.83;7.50;;;9.90;99.90;;;;;;5025801;28;20465;-49
2022/05/02 00:37:23;;;;;;;8.70;7.90;;;9.90;99.90;;;;;;5032221;28;20920;-49
2022/05/02 00:39:49;;;;;;;7.90;7.30;;;9.80;99.90;;;;;;5030924;28;20187;-51
2022/05/02 00:42:14;;;;;;;8.57;7.87;;;9.80;99.90;;;;;;5030656;28;20199;-53
2022/05/02 00:44:43;;;;;;;10.13;9.23;;;9.80;99.90;;;;;;5030761;28;20281;-51
2022/05/02 00:47:09;;;;;;;8.77;8.00;;;9.70;99.90;;;;;;5030055;28;20191;-49
2022/05/02 00:49:37;;;;;;;10.07;9.07;;;9.70;99.90;;;;;;5029354;28;20441;-50
2022/05/02 00:52:04;;;;;;;8.33;7.73;;;9.70;99.90;;;;;;5030640;28;20983;-51
2022/05/02 00:54:31;;;;;;;8.50;7.80;;;9.60;99.90;;;;;;5028549;28;20600;-50
2022/05/02 00:56:58;;;;;;;8.93;8.23;;;9.60;99.90;;;;;;5029758;28;20437;-52
2022/05/02 00:59:24;;;;;;;8.70;7.90;;;9.60;99.90;;;;;;5031324;28;20437;-54
2022/05/02 01:01:49;;;;;;;8.40;7.60;;;9.50;99.90;;;;;;5026268;28;20863;-51
2022/05/02 01:04:15;;;;;;;8.93;8.13;;;9.50;99.90;;;;;;5027446;28;20446;-52
2022/05/02 01:09:25;;;;;;;9.37;8.60;;;9.40;99.90;;;;;;5027169;28;20201;-53
2022/05/02 01:11:51;;;;;;;9.10;8.30;;;9.30;99.90;;;;;;5030097;28;20446;-48
2022/05/02 01:14:17;;;;;;;8.67;7.93;;;9.40;99.90;;;;;;5030023;28;20203;-52
2022/05/02 01:16:42;;;;;;;8.97;8.27;;;9.40;99.90;;;;;;5029682;28;21107;-52
2022/05/02 01:19:08;;;;;;;8.50;7.80;;;9.40;99.90;;;;;;5029448;28;20191;-50
2022/05/02 01:21:34;;;;;;;8.57;7.87;;;9.30;99.90;;;;;;5026609;28;20248;-49
2022/05/02 01:24:02;;;;;;;8.70;7.90;;;9.30;99.90;;;;;;5028859;28;20210;-50
2022/05/02 01:26:28;;;;;;;8.73;7.63;;;9.30;99.90;;;;;;5030275;28;20454;-49
2022/05/02 01:28:58;;;;;;;8.20;7.40;;;9.30;99.90;;;;;;5028561;28;20438;-50
2022/05/02 01:31:24;;;;;;;8.77;7.97;;;9.30;99.90;;;;;;5026558;28;20437;-52
2022/05/02 01:33:51;;;;;;;8.67;7.73;;;9.30;99.90;;;;;;5029171;28;20552;-50
2022/05/02 01:36:20;;;;;;;8.80;8.10;;;9.30;99.90;;;;;;5031528;28;21187;-47
2022/05/02 01:38:46;;;;;;;9.80;8.90;;;9.30;99.90;;;;;;5029985;28;21001;-52
2022/05/02 01:41:12;;;;;;;9.90;7.73;;;9.30;99.90;;;;;;5031336;28;20421;-52
2022/05/02 01:43:39;;;;;;;10.10;8.30;;;9.20;99.90;;;;;;5025889;28;20448;-50
2022/05/02 01:46:06;;;;;;;9.33;8.53;;;9.20;99.90;;;;;;5030068;28;20429;-50
2022/05/02 01:48:32;;;;;;;8.63;7.87;;;9.20;99.90;;;;;;5030225;28;20445;-52
2022/05/02 01:50:58;;;;;;;9.10;8.30;;;9.20;99.90;;;;;;5030158;28;20456;-49
2022/05/02 01:53:25;;;;;;;8.50;7.70;;;9.20;99.90;;;;;;5030708;28;20995;-54
2022/05/02 01:55:51;;;;;;;8.67;7.97;;;9.20;99.90;;;;;;5027622;28;20794;-54
2022/05/02 01:58:17;;;;;;;8.23;7.50;;;9.10;99.90;;;;;;5030001;28;20442;-49
2022/05/02 02:00:43;;;;;;;8.60;7.80;;;9.10;99.90;;;;;;5029491;28;20447;-51
2022/05/02 02:03:09;;;;;;;9.67;8.23;;;9.10;99.90;;;;;;5030959;28;20489;-49
2022/05/02 02:05:50;;;;;;;9.00;8.27;;;9.10;99.90;;;;;;5026649;28;20863;-49
2022/05/02 02:08:24;;;;;;;8.00;7.30;;;9.10;99.90;;;;;;5029066;28;21157;-52
2022/05/02 02:10:53;;;;;;;8.33;7.63;;;9.10;99.90;;;;;;5029804;28;20960;-53
2022/05/02 02:13:19;;;;;;;9.13;8.23;;;9.10;99.90;;;;;;5029143;28;20461;-54
2022/05/02 02:15:45;;;;;;;9.53;8.73;;;9.10;99.90;;;;;;5029102;28;20499;-50
2022/05/02 02:18:11;;;;;;;9.53;8.63;;;9.10;99.90;;;;;;5027327;28;20233;-53
2022/05/02 02:20:37;;;;;;;8.90;8.10;;;9.10;99.90;;;;;;5030678;28;20432;-52
2022/05/02 02:23:03;;;;;;;8.70;8.00;;;9.20;99.90;;;;;;5031912;28;20457;-55
2022/05/02 02:25:29;;;;;;;8.90;8.20;;;9.10;99.90;;;;;;5029569;28;20186;-49
2022/05/02 02:27:55;;;;;;;8.50;7.70;;;9.20;99.90;;;;;;5025745;28;20448;-51
2022/05/02 02:30:20;;;;;;;8.87;8.03;;;9.20;99.90;;;;;;5026460;28;20194;-51
2022/05/02 02:32:46;;;;;;;8.60;7.80;;;9.20;99.90;;;;;;5029207;28;20186;-50
2022/05/02 02:35:12;;;;;;;9.53;8.63;;;9.20;99.90;;;;;;5026986;28;20222;-51
2022/05/02 02:37:39;;;;;;;8.90;8.20;;;9.30;99.90;;;;;;5027519;28;20446;-52
2022/05/02 02:40:05;;;;;;;9.07;8.23;;;9.30;99.90;;;;;;5029353;28;20270;-50
2022/05/02 02:42:31;;;;;;;8.90;8.20;;;9.30;99.90;;;;;;5028170;28;20445;-53
2022/05/02 02:44:56;;;;;;;9.17;7.77;;;9.30;99.90;;;;;;5028462;28;20535;-52
2022/05/02 02:47:22;;;;;;;8.87;7.80;;;9.30;99.90;;;;;;5029236;28;20255;-53
2022/05/02 02:49:47;;;;;;;8.40;7.70;;;9.20;99.90;;;;;;5025434;28;20187;-49
2022/05/02 02:52:13;;;;;;;8.37;7.67;;;9.20;99.90;;;;;;5029936;28;20191;-50
2022/05/02 02:54:38;;;;;;;9.50;8.40;;;9.20;99.90;;;;;;5027864;28;20237;-53
2022/05/02 02:57:04;;;;;;;8.97;7.50;;;9.20;99.90;;;;;;5026807;28;20266;-52
2022/05/02 02:59:30;;;;;;;8.63;7.83;;;9.10;99.90;;;;;;5026210;28;20223;-49
2022/05/02 03:01:56;;;;;;;8.67;7.70;;;9.00;99.90;;;;;;5028958;28;20591;-51
2022/05/02 03:07:07;;;;;;;8.70;7.90;;;8.90;99.90;;;;;;5028295;28;20476;-49
2022/05/02 03:09:33;;;;;;;8.37;7.67;;;8.90;99.90;;;;;;5028542;28;20437;-52
2022/05/02 03:11:59;;;;;;;8.97;8.17;;;8.90;99.90;;;;;;5028971;28;20892;-53
2022/05/02 03:14:24;;;;;;;9.17;8.33;;;8.80;99.90;;;;;;5024128;28;20213;-53
2022/05/02 03:16:50;;;;;;;8.70;7.83;;;8.80;99.90;;;;;;5027948;28;20641;-50
2022/05/02 03:19:15;;;;;;;9.13;8.00;;;8.70;99.90;;;;;;5026040;28;20543;-53
2022/05/02 03:21:41;;;;;;;8.97;8.17;;;8.80;99.90;;;;;;5027492;28;20202;-53
2022/05/02 03:24:07;;;;;;;8.90;8.13;;;8.70;99.90;;;;;;5023679;28;21228;-53
2022/05/02 03:26:32;;;;;;;8.77;7.93;;;8.70;99.90;;;;;;5028347;28;20530;-51
2022/05/02 03:28:58;;;;;;;9.30;8.50;;;8.70;99.90;;;;;;5027817;28;20190;-50
2022/05/02 03:31:23;;;;;;;8.63;7.93;;;8.60;99.90;;;;;;5028585;28;20186;-51
2022/05/02 03:33:49;;;;;;;9.50;8.70;;;8.60;99.90;;;;;;5026407;28;20576;-52
2022/05/02 03:36:15;;;;;;;10.43;8.60;;;8.60;99.90;;;;;;5026905;28;20195;-52
2022/05/02 03:38:40;;;;;;;8.83;8.03;;;8.60;99.90;;;;;;5028458;28;20964;-52
2022/05/02 03:41:06;;;;;;;10.33;9.23;;;8.60;99.90;;;;;;5026832;28;20191;-51
2022/05/02 03:43:33;;;;;;;10.43;8.87;;;8.60;99.90;;;;;;5024131;28;20653;-51
2022/05/02 03:45:58;;;;;;;11.33;9.53;;;8.60;99.90;;;;;;5026669;28;20195;-51
2022/05/02 03:48:26;;;;;;;11.23;9.60;;;8.50;99.90;;;;;;5023031;28;20434;-50
2022/05/02 03:50:52;;;;;;;9.90;8.53;;;8.50;99.90;;;;;;5027586;28;20187;-53
2022/05/02 03:53:18;;;;;;;9.23;8.43;;;8.50;99.90;;;;;;5027223;28;20461;-50
2022/05/02 03:55:45;;;;;;;8.97;8.07;;;8.50;99.90;;;;;;5026805;28;20449;-53
2022/05/02 03:58:11;;;;;;;8.83;7.93;;;8.50;99.90;;;;;;5027023;28;20181;-50
2022/05/02 04:00:36;;;;;;;8.97;8.13;;;8.40;99.90;;;;;;5029866;28;20418;-54
2022/05/02 04:03:02;;;;;;;9.80;7.80;;;8.40;99.90;;;;;;5032522;28;20440;-50
2022/05/02 04:05:27;;;;;;;9.30;8.37;;;8.40;99.90;;;;;;5033675;28;20195;-53
2022/05/02 04:07:53;;;;;;;9.00;8.03;;;8.40;99.90;;;;;;5031716;28;20191;-55
2022/05/02 04:10:19;;;;;;;9.90;8.60;;;8.40;99.90;;;;;;5029957;28;20278;-49
2022/05/02 04:12:44;;;;;;;9.27;8.37;;;8.40;99.90;;;;;;5028807;28;20183;-51
2022/05/02 04:15:10;;;;;;;10.00;8.63;;;8.40;99.90;;;;;;5032335;28;20207;-52
2022/05/02 04:17:36;;;;;;;9.03;8.17;;;8.30;99.90;;;;;;5029999;28;20187;-52
2022/05/02 04:20:03;;;;;;;9.77;8.87;;;8.30;99.90;;;;;;5028879;28;20194;-50
2022/05/02 04:22:29;;;;;;;9.07;8.17;;;8.30;99.90;;;;;;5030306;28;20441;-50
2022/05/02 04:24:54;;;;;;;9.53;8.43;;;8.30;99.90;;;;;;5030370;28;20491;-53
2022/05/02 04:27:20;;;;;;;10.30;9.20;;;8.20;99.90;;;;;;5029861;28;20186;-51
2022/05/02 04:29:46;;;;;;;10.90;9.70;;;8.30;99.90;;;;;;5025503;28;20672;-54
2022/05/02 04:32:11;;;;;;;9.83;8.83;;;8.30;99.90;;;;;;5021362;28;20436;-49
2022/05/02 04:34:37;;;;;;;9.60;8.63;;;8.40;99.90;;;;;;5021301;28;20737;-52
2022/05/02 04:37:03;;;;;;;9.17;8.23;;;8.40;99.90;;;;;;5024071;28;20183;-53
2022/05/02 04:39:29;;;;;;;10.27;9.27;;;8.40;99.90;;;;;;5025523;28;20500;-54
2022/05/02 04:41:54;;;;;;;9.43;8.53;;;8.50;99.90;;;;;;5020309;28;20480;-49
2022/05/02 04:44:20;;;;;;;11.07;9.60;;;8.50;99.90;;;;;;5023114;28;20278;-50
2022/05/02 04:46:45;;;;;;;12.73;9.47;;;8.50;99.90;;;;;;5031626;28;20187;-54
2022/05/02 04:49:11;;;;;;;10.53;9.00;;;8.60;99.90;;;;;;5028450;28;20214;-53
2022/05/02 04:51:36;;;;;;;11.10;8.40;;;8.70;99.90;;;;;;5031993;28;20203;-46
2022/05/02 04:54:02;;;;;;;10.80;9.50;;;8.70;99.90;;;;;;5031762;28;21006;-53
2022/05/02 04:56:28;;;;;;;10.10;9.10;;;8.90;99.90;;;;;;5032310;28;20190;-49
2022/05/02 04:58:53;;;;;;;9.90;9.00;;;8.90;99.90;;;;;;5031773;28;20417;-53
2022/05/02 05:01:19;;;;;;;10.43;8.83;;;9.00;99.90;;;;;;5027743;28;21012;-53
2022/05/02 05:03:46;;;;;;;10.10;9.10;;;9.10;99.90;;;;;;5030478;28;20644;-51
2022/05/02 05:06:12;;;;;;;10.03;9.03;;;9.10;99.90;;;;;;5044806;28;20919;-51
2022/05/02 05:08:37;;;;;;;11.27;9.30;;;9.20;99.90;;;;;;5030517;28;20437;-51
2022/05/02 05:11:30;;;;;;;13.50;8.27;;;9.30;99.90;;;;;;5028512;28;20561;-52
2022/05/02 05:17:32;;;;;;;9.87;8.87;;;9.40;99.90;;;;;;5030717;28;20421;-52
2022/05/02 05:20:18;;;;;;;10.40;9.10;;;9.50;99.90;;;;;;5023349;28;20982;-48
2022/05/02 05:23:16;;;;;;;10.33;8.73;;;9.50;99.90;;;;;;5028384;28;21266;-49
2022/05/02 05:26:08;;;;;;;10.53;9.33;;;9.50;99.90;;;;;;5030597;28;21253;-50
2022/05/02 05:28:37;;;;;;;9.27;8.47;;;9.60;99.90;;;;;;5030425;28;20446;-51
2022/05/02 05:31:35;;;;;;;11.43;9.20;;;9.60;99.90;;;;;;5044652;28;20445;-49
2022/05/02 05:34:16;;;;;;;11.57;10.47;;;9.60;99.90;;;;;;5030700;28;20489;-52
2022/05/02 05:37:03;;;;;;;10.00;9.00;;;9.70;99.90;;;;;;5026922;28;20579;-52
2022/05/02 05:39:49;;;;;;;9.83;8.90;;;9.70;99.90;;;;;;5030440;28;20428;-51
2022/05/02 05:42:21;;;;;;;10.73;9.63;;;9.70;99.90;;;;;;5029983;28;20420;-51
2022/05/02 05:45:10;;;;;;;9.60;8.70;;;9.80;99.90;;;;;;5030263;28;20570;-52
2022/05/02 05:48:06;;;;;;;10.57;9.40;;;9.80;99.90;;;;;;5030398;28;20393;-51
2022/05/02 05:50:36;;;;;;;11.80;9.43;;;9.80;99.90;;;;;;5028728;28;20444;-53
2022/05/02 05:56:04;;;;;;;10.40;9.40;;;9.90;99.90;;;;;;5066688;28;20621;-54
2022/05/02 05:58:46;;;;;;;10.53;9.47;;;10.00;99.90;;;;;;5058844;28;20801;-51
2022/05/02 06:01:19;;;;;;;10.80;9.70;;;10.10;99.90;;;;;;5046677;28;20413;-51
2022/05/02 06:04:03;;;;;;;10.90;9.80;;;10.20;99.90;;;;;;5056939;28;20472;-49
2022/05/02 06:06:29;;;;;;;11.07;10.00;;;10.30;99.90;;;;;;5068885;28;20756;-49
2022/05/02 06:09:00;;;;;;;12.33;8.90;;;10.40;99.90;;;;;;5070234;28;20419;-53
2022/05/02 06:11:27;;;;;;;9.77;8.77;;;10.50;99.90;;;;;;5053357;28;20476;-50
2022/05/02 06:13:54;;;;;;;11.07;9.43;;;10.60;99.90;;;;;;5056237;28;20847;-50
2022/05/02 06:19:38;;;;;;;10.37;9.13;;;10.80;99.90;;;;;;5059747;28;20866;-48
2022/05/02 06:22:04;;;;;;;11.07;10.07;;;10.90;99.90;;;;;;5051526;28;20424;-51
2022/05/02 06:24:32;;;;;;;11.27;9.60;;;11.00;99.90;;;;;;5052287;28;20468;-51
2022/05/02 06:26:59;;;;;;;11.07;9.97;;;11.10;99.90;;;;;;5047685;28;20433;-53
2022/05/02 06:29:25;;;;;;;10.70;9.60;;;11.20;99.90;;;;;;5065826;28;20503;-53
2022/05/02 06:31:54;;;;;;;11.10;10.00;;;11.30;99.90;;;;;;5065773;28;20585;-51
2022/05/02 06:34:26;;;;;;;9.50;8.70;;;11.40;99.90;;;;;;5066238;28;20182;-48
2022/05/02 06:37:04;;;;;;;10.80;9.80;;;11.60;99.90;;;;;;5065924;28;20420;-53
2022/05/02 06:40:03;;;;;;;10.93;9.90;;;11.70;99.90;;;;;;5059965;28;20856;-52
2022/05/02 06:42:30;;;;;;;10.87;9.87;;;11.70;99.90;;;;;;5054797;28;20444;-52
2022/05/02 06:45:05;;;;;;;11.57;10.47;;;11.70;99.90;;;;;;5065235;28;20945;-50
2022/05/02 06:48:08;;;;;;;11.27;10.07;;;11.80;99.90;;;;;;5065465;28;20403;-53
2022/05/02 06:50:38;;;;;;;11.20;10.10;;;11.90;99.90;;;;;;5050471;28;20848;-50
2022/05/02 06:53:57;;;;;;;11.87;10.63;;;12.00;99.90;;;;;;5059282;28;20531;-54
2022/05/02 06:56:32;;;;;;;10.87;9.80;;;12.10;99.60;;;;;;5043149;28;20424;-49
2022/05/02 06:59:36;;;;;;;10.80;9.70;;;12.20;99.30;;;;;;5065049;28;20427;-48
2022/05/02 07:02:13;;;;;;;11.23;10.13;;;12.40;99.00;;;;;;5064690;28;20412;-50
2022/05/02 07:05:03;;;;;;;11.30;10.20;;;12.50;98.50;;;;;;5064996;28;20516;-53
2022/05/02 07:07:41;;;;;;;10.87;9.87;;;12.60;98.00;;;;;;5053872;28;20895;-54
2022/05/02 07:10:12;;;;;;;11.10;10.07;;;12.80;97.50;;;;;;5051145;28;20479;-52
2022/05/02 07:13:04;;;;;;;10.47;9.50;;;12.80;97.00;;;;;;5043090;28;20456;-52
2022/05/02 07:15:36;;;;;;;11.80;10.57;;;12.90;97.10;;;;;;5043417;28;20532;-50
2022/05/02 07:18:05;;;;;;;11.23;10.13;;;13.00;96.90;;;;;;5050920;28;20524;-51
2022/05/02 07:20:33;;;;;;;10.70;9.70;;;13.10;96.60;;;;;;5039671;28;20409;-54
2022/05/02 07:23:27;;;;;;;11.80;10.70;;;13.30;96.20;;;;;;5051389;28;20431;-55
2022/05/02 07:26:14;;;;;;;12.00;10.90;;;13.40;96.00;;;;;;5042755;28;20430;-53
2022/05/02 07:28:47;;;;;;;11.93;10.83;;;13.50;94.70;;;;;;5035825;28;20477;-54
2022/05/02 07:31:23;;;;;;;12.00;10.90;;;13.70;94.40;;;;;;5048881;28;20464;-53
2022/05/02 07:33:53;;;;;;;11.63;10.37;;;13.70;94.60;;;;;;5051654;28;20409;-52
2022/05/02 07:36:22;;;;;;;12.37;11.17;;;13.70;94.40;;;;;;5052061;28;20470;-50
2022/05/02 07:38:52;;;;;;;11.50;10.50;;;13.70;94.30;;;;;;5050805;28;20429;-53
2022/05/02 07:41:23;;;;;;;11.70;10.67;;;13.80;94.40;;;;;;5051475;28;20444;-56
2022/05/02 07:43:52;;;;;;;12.30;11.20;;;14.00;93.80;;;;;;5050042;28;21321;-51
2022/05/02 07:46:22;;;;;;;11.97;10.87;;;14.00;93.40;;;;;;5051275;28;20409;-50
2022/05/02 07:48:50;;;;;;;12.53;11.33;;;14.10;92.90;;;;;;5051460;28;20429;-52
2022/05/02 07:51:16;;;;;;;11.73;10.53;;;14.20;92.80;;;;;;5051269;28;20389;-51
2022/05/02 07:53:43;;;;;;;16.10;14.47;;;14.40;92.40;;;;;;5050894;28;20566;-54
2022/05/02 07:56:09;;;;;;;12.97;11.87;;;14.40;92.40;;;;;;5047723;28;20565;-53
2022/05/02 07:58:39;;;;;;;12.70;11.60;;;14.50;92.60;;;;;;5031236;28;21008;-48
2022/05/02 08:01:04;;;;;;;12.33;11.23;;;14.70;92.10;;;;;;5037336;28;20520;-51
2022/05/02 08:03:30;;;;;;;12.27;11.17;;;14.90;91.00;;;;;;5051004;28;20519;-49
2022/05/02 08:06:02;;;;;;;12.97;11.50;;;15.00;91.10;;;;;;5050599;28;20182;-50
2022/05/02 08:08:36;;;;;;;12.30;11.20;;;15.10;90.70;;;;;;5049995;28;20186;-54
2022/05/02 08:11:15;;;;;;;14.20;12.07;;;15.30;90.10;;;;;;5050490;28;20445;-52
2022/05/02 08:14:02;;;;;;;12.40;11.30;;;15.40;89.10;;;;;;5052779;28;20433;-52
2022/05/02 08:16:32;;;;;;;12.70;11.50;;;15.50;88.20;;;;;;5053088;28;20426;-49
2022/05/02 08:19:18;;;;;;;12.40;11.20;;;15.60;88.00;;;;;;5054141;28;20409;-52
2022/05/02 08:27:15;;;;;;;12.20;11.10;;;15.80;89.50;;;;;;5050440;28;20415;-52
2022/05/02 08:27:59;;;;;;;13.20;11.90;;;16.30;87.10;;;;;;5042958;28;21003;-52
2022/05/02 08:30:25;;;;;;;12.07;11.07;;;16.60;88.10;;;;;;5039906;28;20435;-54
2022/05/02 08:33:07;;;;;;;13.10;12.00;;;16.80;85.60;;;;;;5047627;28;20451;-52
2022/05/02 08:35:33;;;;;;;12.47;11.37;;;17.10;84.50;;;;;;5050470;28;20432;-53
2022/05/02 08:38:11;;;;;;;12.20;11.20;;;17.20;82.60;;;;;;5042878;28;20499;-51
2022/05/02 08:41:18;;;;;;;12.67;11.53;;;17.40;81.40;;;;;;5045688;28;20192;-50
2022/05/02 08:44:21;;;;;;;11.73;10.57;;;17.60;81.90;;;;;;5049329;28;20471;-51
2022/05/02 08:46:55;;;;;;;12.50;11.27;;;17.90;80.00;;;;;;5050107;28;20412;-52
2022/05/02 08:49:42;;;;;;;12.13;11.13;;;18.30;75.50;;;;;;5036459;28;20990;-51
2022/05/02 08:52:32;;;;;;;12.17;11.17;;;18.50;74.60;;;;;;5038695;28;20421;-51
2022/05/02 08:55:39;;;;;;;11.97;11.07;;;19.10;71.60;;;;;;5031290;28;20549;-50
2022/05/02 08:58:37;;;;;;;12.77;11.77;;;19.90;66.80;;;;;;5039142;28;20421;-47
2022/05/02 09:01:26;;;;;;;12.20;11.20;;;20.40;61.90;;;;;;5045641;28;20434;-53
2022/05/02 09:04:09;;;;;;;11.60;10.40;;;20.50;58.30;;;;;;5032169;28;20458;-53
2022/05/02 09:06:59;;;;;;;12.77;11.67;;;20.90;57.60;;;;;;5028999;28;20448;-53
2022/05/02 09:10:01;;;;;;;10.63;9.83;;;22.10;54.90;;;;;;5037104;28;20554;-53
2022/05/02 09:12:54;;;;;;;11.73;10.57;;;22.90;49.90;;;;;;5035732;28;20463;-61
2022/05/02 09:15:50;;;;;;;10.77;9.87;;;23.20;49.80;;;;;;5036364;28;20452;-61
2022/05/02 09:18:43;;;;;;;9.90;9.10;;;23.30;45.40;;;;;;5040188;28;20785;-61
2022/05/02 09:21:38;;;;;;;10.90;10.10;;;23.80;42.70;;;;;;5036269;28;20412;-61
2022/05/02 09:24:38;;;;;;;10.93;10.03;;;24.40;40.50;;;;;;5032398;28;20476;-61
2022/05/02 09:27:24;;;;;;;10.80;9.90;;;24.90;41.50;;;;;;5045567;28;21189;-61
2022/05/02 09:30:14;;;;;;;11.23;10.43;;;25.20;38.10;;;;;;5049074;28;20557;-61
2022/05/02 09:33:05;;;;;;;9.80;9.10;;;25.60;37.10;;;;;;5046985;28;20466;-62
2022/05/02 09:35:34;;;;;;;10.10;9.27;;;26.00;33.90;;;;;;5046063;28;20441;-59
2022/05/02 09:38:26;;;;;;;9.80;9.03;;;26.20;34.40;;;;;;5028732;28;20813;-61
2022/05/02 09:41:03;;;;;;;10.50;9.60;;;26.50;33.00;;;;;;5029088;28;20413;-54
2022/05/02 09:50:02;;;;;;;10.80;10.03;;;28.30;26.50;;;;;;5036772;28;21325;-61
2022/05/02 09:52:47;;;;;;;10.23;9.33;;;28.00;26.40;;;;;;5030789;28;20410;-61
2022/05/02 09:58:29;;;;;;;9.60;9.00;;;28.50;26.60;;;;;;5049386;28;20397;-61
2022/05/02 10:01:25;;;;;;;10.33;9.53;;;28.60;25.50;;;;;;5047411;28;20455;-60
2022/05/02 10:04:40;;;;;;;12.40;10.13;;;29.00;24.90;;;;;;5057282;28;21356;-61
2022/05/02 10:07:10;;;;;;;9.80;9.00;;;29.00;24.80;;;;;;5033163;28;20888;-61
2022/05/02 10:10:01;;;;;;;10.27;9.57;;;29.80;24.40;;;;;;5051169;28;20425;-60
2022/05/02 10:12:30;;;;;;;9.80;9.10;;;29.60;23.70;;;;;;5029728;28;20841;-61
2022/05/02 10:15:03;;;;;;;11.20;10.40;;;29.80;23.60;;;;;;5043242;28;20891;-61
2022/05/02 10:17:51;;;;;;;11.33;10.50;;;29.70;23.10;;;;;;5030394;28;20837;-62
2022/05/02 10:20:19;;;;;;;9.50;8.87;;;29.80;22.80;;;;;;5029808;28;20424;-61
2022/05/02 10:23:11;;;;;;;8.93;8.33;;;30.00;23.30;;;;;;5028650;28;20457;-61
2022/05/02 10:26:00;;;;;;;9.60;8.90;;;29.90;23.80;;;;;;5029357;28;20462;-59
2022/05/02 10:29:14;;;;;;;9.97;9.10;;;30.70;22.60;;;;;;5040252;28;20429;-61
2022/05/02 10:31:41;;;;;;;9.07;8.47;;;30.40;22.00;;;;;;5025669;28;20455;-60
2022/05/02 10:34:12;;;;;;;9.53;8.83;;;30.40;22.60;;;;;;5037491;28;20827;-61
2022/05/02 10:36:39;;;;;;;10.30;9.60;;;30.40;21.80;;;;;;5033815;28;20420;-61
2022/05/02 10:39:29;;;;;;;10.00;9.23;;;30.50;22.30;;;;;;5038096;28;20444;-62
2022/05/02 10:41:58;;;;;;;11.33;10.53;;;31.30;22.20;;;;;;5032077;28;20433;-60
2022/05/02 10:44:28;;;;;;;9.70;9.10;;;31.60;21.80;;;;;;5034241;28;20469;-59
2022/05/02 10:47:02;;;;;;;10.23;9.37;;;31.70;21.50;;;;;;5032084;28;20959;-61
2022/05/02 10:49:59;;;;;;;10.47;9.53;;;32.00;20.30;;;;;;5034310;28;20428;-61
2022/05/02 10:52:42;;;;;;;9.73;9.03;;;31.70;20.40;;;;;;5041760;28;20494;-61
2022/05/02 10:55:15;;;;;;;10.00;9.20;;;31.80;21.40;;;;;;5033750;28;20472;-61
2022/05/02 10:57:50;;;;;;;10.53;9.70;;;32.00;20.10;;;;;;5032191;28;20439;-61
2022/05/02 11:00:15;;;;;;;9.43;8.80;;;32.20;19.20;;;;;;5047836;28;20439;-61
2022/05/02 11:03:12;;;;;;;11.10;10.30;;;32.60;20.10;;;;;;5049266;28;20448;-59
2022/05/02 11:05:49;;;;;;;11.23;10.43;;;31.80;19.70;;;;;;5030542;28;20310;-61
2022/05/02 11:08:30;;;;;;;9.87;9.17;;;31.50;20.70;;;;;;5037034;28;20440;-60
2022/05/02 11:11:04;;;;;;;10.03;9.30;;;32.30;20.10;;;;;;5035424;28;20401;-61
2022/05/02 11:13:44;;;;;;;10.60;9.90;;;32.30;19.90;;;;;;5041586;28;20511;-62
2022/05/02 11:16:21;;;;;;;10.80;10.00;;;32.10;20.10;;;;;;5033363;28;20507;-61
2022/05/02 11:22:15;;;;;;;10.90;10.20;;;32.40;19.40;;;;;;5041765;28;20452;-61
2022/05/02 11:24:56;;;;;;;10.07;9.40;;;32.80;19.60;;;;;;5033151;28;20476;-61
2022/05/02 11:27:46;;;;;;;12.03;11.17;;;32.90;19.20;;;;;;5045871;28;20919;-61
2022/05/02 11:30:15;;;;;;;10.70;9.90;;;32.10;19.60;;;;;;5038609;28;20916;-60
2022/05/02 11:33:07;;;;;;;10.20;9.50;;;32.50;19.60;;;;;;5047211;28;20416;-61
2022/05/02 11:35:34;;;;;;;11.10;10.30;;;33.00;19.70;;;;;;5041933;28;20899;-61
2022/05/02 11:38:27;;;;;;;10.80;10.10;;;32.60;19.50;;;;;;5050987;28;20416;-61
2022/05/02 11:41:18;;;;;;;9.83;9.13;;;32.00;20.30;;;;;;5031573;28;20440;-60
2022/05/02 11:43:45;;;;;;;10.70;10.00;;;31.80;21.30;;;;;;5032466;28;20537;-61
2022/05/02 11:46:20;;;;;;;9.77;9.13;;;31.20;20.90;;;;;;5031644;28;20414;-61
2022/05/02 11:49:14;;;;;;;10.33;9.63;;;31.00;21.20;;;;;;5030397;28;20451;-57
2022/05/02 11:51:43;;;;;;;10.23;9.53;;;29.90;21.90;;;;;;5032312;28;21313;-61
2022/05/02 11:54:36;;;;;;;11.27;10.57;;;29.40;22.60;;;;;;5032102;28;20473;-61
2022/05/02 11:57:20;;;;;;;10.30;9.50;;;29.60;23.00;;;;;;5043140;28;20451;-62
2022/05/02 12:00:07;;;;;;;11.03;10.00;;;29.90;22.70;;;;;;5048191;28;20441;-61
2022/05/02 12:02:48;;;;;;;10.20;9.40;;;29.70;22.60;;;;;;5046320;28;20440;-61
2022/05/02 12:05:25;;;;;;;11.50;10.90;;;29.80;21.90;;;;;;5031399;28;20449;-61
2022/05/02 12:08:20;;;;;;;13.03;11.93;;;30.70;20.70;;;;;;5031046;28;20428;-62
2022/05/02 12:10:47;;;;;;;12.90;11.80;;;31.00;19.90;;;;;;5035421;28;20444;-61
2022/05/02 12:13:16;;;;;;;11.07;10.37;;;31.30;20.60;;;;;;5040631;28;20430;-61
2022/05/02 12:16:02;;;;;;;11.90;11.20;;;31.80;20.30;;;;;;5047848;28;20429;-62
2022/05/02 12:18:37;;;;;;;11.87;11.13;;;32.20;19.80;;;;;;5049187;28;20444;-61
2022/05/02 12:21:05;;;;;;;12.77;11.80;;;32.20;19.60;;;;;;5040650;28;20500;-61
2022/05/02 12:23:34;;;;;;;12.17;11.30;;;32.80;19.60;;;;;;5045746;28;20416;-62
2022/05/02 12:26:03;;;;;;;12.70;11.80;;;33.40;17.70;;;;;;5048797;28;20463;-61
2022/05/02 12:28:51;;;;;;;11.87;11.07;;;33.20;17.90;;;;;;5049556;28;20444;-61
2022/05/02 12:31:30;;;;;;;12.10;11.30;;;32.60;18.40;;;;;;5039689;28;20433;-61
2022/05/02 12:34:07;;;;;;;11.93;11.23;;;31.60;19.40;;;;;;5030172;28;21195;-61
2022/05/02 12:36:45;;;;;;;12.93;12.07;;;30.60;20.70;;;;;;5029701;28;20426;-60
2022/05/02 12:39:33;;;;;;;13.43;12.40;;;29.60;21.60;;;;;;5031523;28;20453;-61
2022/05/02 12:42:20;;;;;;;13.30;12.40;;;28.80;22.70;;;;;;5047041;28;20526;-61
2022/05/02 12:45:01;;;;;;;12.47;11.67;;;28.20;23.00;;;;;;5050522;28;20433;-60
2022/05/02 12:47:39;;;;;;;13.67;12.67;;;27.60;24.10;;;;;;5036270;28;20485;-60
2022/05/02 12:50:07;;;;;;;13.27;12.13;;;27.40;24.20;;;;;;5047373;28;21020;-60
2022/05/02 12:52:35;;;;;;;12.97;12.13;;;26.90;24.40;;;;;;5031270;28;20508;-61
2022/05/02 12:55:00;;;;;;;12.90;12.03;;;26.30;24.80;;;;;;5029832;28;20524;-61
2022/05/02 13:00:31;;;;;;;11.70;10.80;;;25.70;25.50;;;;;;5035133;28;20197;-60
2022/05/02 13:03:02;;;;;;;12.30;11.30;;;25.30;25.90;;;;;;5049556;28;20801;-61
2022/05/02 13:05:31;;;;;;;11.40;10.50;;;25.10;26.20;;;;;;5046935;28;20436;-61
2022/05/02 13:07:57;;;;;;;11.33;10.53;;;24.80;26.30;;;;;;5030195;28;20424;-60
2022/05/02 13:10:28;;;;;;;10.93;10.13;;;24.60;27.20;;;;;;5032677;28;20555;-61
2022/05/02 13:12:59;;;;;;;11.43;10.53;;;24.60;27.20;;;;;;5040721;28;20519;-61
2022/05/02 13:15:31;;;;;;;11.43;10.30;;;24.50;27.20;;;;;;5040461;28;20561;-60
2022/05/02 13:18:00;;;;;;;11.37;10.50;;;24.50;28.00;;;;;;5029427;28;20509;-61
2022/05/02 13:20:28;;;;;;;10.67;9.87;;;24.40;28.00;;;;;;5035096;28;20460;-61
2022/05/02 13:23:07;;;;;;;11.13;10.33;;;24.40;28.40;;;;;;5049439;28;20898;-61
2022/05/02 13:26:19;;;;;;;11.53;10.40;;;24.50;29.30;;;;;;5047034;28;20864;-61
2022/05/02 13:29:10;;;;;;;12.60;11.70;;;24.50;28.60;;;;;;5048920;28;20423;-60
2022/05/02 13:31:47;;;;;;;10.70;9.77;;;24.70;28.90;;;;;;5034398;28;20455;-61
2022/05/02 13:34:37;;;;;;;11.20;10.50;;;25.10;28.90;;;;;;5033336;28;20519;-61
2022/05/02 13:37:13;;;;;;;11.73;10.93;;;25.50;27.50;;;;;;5046590;28;20786;-61
2022/05/02 13:39:41;;;;;;;11.33;10.53;;;25.60;26.10;;;;;;5049380;28;20493;-61
2022/05/02 13:42:15;;;;;;;11.43;10.33;;;25.80;26.00;;;;;;5046921;28;20960;-61
2022/05/02 13:44:55;;;;;;;11.63;10.73;;;26.00;26.60;;;;;;5043260;28;20423;-62
2022/05/02 13:47:26;;;;;;;11.63;10.83;;;26.30;26.20;;;;;;5043015;28;20921;-61
2022/05/02 13:50:12;;;;;;;10.70;9.90;;;26.20;24.60;;;;;;5046074;28;20977;-61
2022/05/02 13:53:05;;;;;;;11.83;10.83;;;26.60;25.50;;;;;;5048449;28;20871;-61